METAR Data
IDs: Format: Raw Decoded Include TAF

Data at: 1534 UTC 12 Dec 2018

PATK 121453Z AUTO 00000KT 1 3/4SM -SN BR M04/M06 A2898 RMK AO2 SLP821 P0000 60003 T10441061 53007 TSNO $
PATK 121451Z AUTO 17003KT 1 3/4SM -SN BR M04/M06 A2898 RMK AO2 P0000 TSNO $
PATK 121436Z AUTO 18004KT 2 1/2SM -SN BR M04/M06 A2898 RMK AO2 P0000 T10441061 TSNO $
PATK 121353Z AUTO 20004KT 3SM -SN BR M04/M06 A2896 RMK AO2 SLP813 P0002 T10441061 TSNO $
PATK 121350Z AUTO 20004KT 2 1/2SM -SN BR M04/M06 A2896 RMK AO2 P0002 TSNO $
PATK 121253Z AUTO 20005KT 1 1/4SM -SN BR M03/M05 A2895 RMK AO2 SLP807 P0001 T10331050 TSNO $
PATK 121240Z AUTO 19003KT 1 1/2SM -SN BR M03/M05 A2894 RMK AO2 P0001 T10331050 TSNO $
PATK 121222Z AUTO 00000KT 2SM -SN BR M03/M05 A2893 RMK AO2 P0000 T10331050 TSNO $
PATK 121157Z AUTO 18003KT 3SM -SN BR M03/M04 A2893 RMK AO2 P0000 T10331044 TSNO $
PATK 121153Z AUTO VRB03KT 1 3/4SM -SN BR M03/M04 A2893 RMK AO2 SLP801 P0001 60004 70044 T10331044 11017 21033 53010 TSNO $
PATK 121135Z AUTO 19003KT 1 3/4SM -SN BR M03/M05 A2892 RMK AO2 P0000 T10331050 TSNO $
PATK 121106Z AUTO 16003KT 3SM -SN BR M03/M04 A2891 RMK AO2 P0000 T10281044 TSNO $
PATK 121053Z AUTO 17004KT 1SM -SN BR M03/M04 A2891 RMK AO2 SLP796 P0002 T10281044 TSNO $
PATK 121011Z AUTO 13003KT 1 1/2SM -SN BR M03/M04 A2890 RMK AO2 P0000 T10281044 TSNO $
PATK 120953Z AUTO 00000KT 2SM -SN BR M03/M04 A2890 RMK AO2 SNB00 SLP791 P0001 T10281044 TSNO $
PATK 120931Z AUTO 00000KT 3SM -SN BR M03/M04 A2889 RMK AO2 SNB00 P0001 T10281039 TSNO $
PATK 120922Z AUTO 00000KT 2 1/2SM -SN BR M03/M04 A2889 RMK AO2 SNB00 P0000 T10281039 TSNO $
PATK 120853Z AUTO 00000KT 10SM M03/M04 A2888 RMK AO2 UPB0759E09SNE0759 SLP787 P0000 60000 T10281039 410111078 51018 TSNO $
PATK 120753Z AUTO 00000KT 5SM -SN BR M02/M04 A2887 RMK AO2 SNB40 SLP782 P0000 T10221039 TSNO $
PATK 120653Z AUTO 00000KT 10SM M02/M04 A2885 RMK AO2 SLP775 T10221039 TSNO $
PATK 120553Z AUTO 17005KT 10SM M02/M03 A2883 RMK AO2 SLP769 60014 T10171033 11011 21022 53017 TSNO $
PATK 120453Z AUTO 18004KT 10SM M01/M03 A2881 RMK AO2 SNE45 SLP762 P0001 T10111033 TSNO $
PATK 120443Z AUTO 00000KT 6SM -SN BR BKN016 OVC024 M02/M03 A2881 RMK AO2 P0001 T10221028 TSNO
PATK 120435Z AUTO 00000KT 2 1/2SM -SN BR BKN016 OVC025 M02/M03 A2881 RMK AO2 P0001 T10221028 TSNO
PATK 120414Z AUTO 04003KT 1 1/2SM -SN BR FEW013 BKN020 OVC030 M02/M03 A2880 RMK AO2 P0001 T10221033 TSNO
PATK 120400Z AUTO 00000KT 1 3/4SM -SN BR OVC012 M02/M03 A2879 RMK AO2 P0000 T10171028 TSNO
PATK 120353Z AUTO 00000KT 3SM -SN BR BKN014 OVC023 M02/M03 A2879 RMK AO2 SLP756 P0002 T10171028 TSNO
PATK 120346Z AUTO 00000KT 2 1/2SM -SN BR BKN014 OVC023 M02/M03 A2879 RMK AO2 P0002 T10221033 TSNO
PATK 120339Z AUTO 00000KT 3SM -SN BR FEW014 BKN018 OVC025 M02/M03 A2879 RMK AO2 P0002 T10171033 TSNO
PATK 120329Z AUTO 00000KT 2SM -SN BR SCT014 OVC025 M02/M03 A2879 RMK AO2 P0002 T10171033 TSNO
PATK 120323Z AUTO 02003KT 1 1/2SM -SN BR BKN014 OVC025 M02/M03 A2878 RMK AO2 P0002 T10171033 TSNO
PATK 120309Z AUTO 03003KT 3/4SM -SN BR VV010 M02/M03 A2878 RMK AO2 P0001 T10171033 TSNO
PATK 120304Z AUTO 04003KT 1SM -SN BR VV009 M02/M03 A2878 RMK AO2 P0001 T10171033 TSNO
PATK 120257Z AUTO 03003KT 3/4SM -SN BR VV010 M02/M03 A2878 RMK AO2 P0000 T10171033 TSNO
PATK 120253Z AUTO 03003KT 1SM -SN BR VV009 M02/M03 A2878 RMK AO2 SLP751 P0005 60011 T10171033 52015 TSNO
PATK 120241Z AUTO 00000KT 1SM -SN BR VV009 M02/M03 A2878 RMK AO2 P0004 T10171028 TSNO
PATK 120153Z AUTO 03003KT 1 1/4SM -SN BR OVC014 M02/M03 A2876 RMK AO2 SLP746 P0003 T10171033 TSNO
PATK 120100Z 02003KT 1 1/4SM -SN BR OVC013 M02/M03 A2875 RMK AO2 P0001 T10171033
PATK 120053Z 00000KT 1SM -SN BR VV015 M02/M03 A2875 RMK AO2 SLP742 P0003 T10221033
PATK 112353Z 02003KT 1/2SM SN FZFG VV015 M02/M03 A2874 RMK AO2 SLP737 P0003 60017 T10221033 11022 21044 51017
PATK 112300Z 36003KT 1/2SM SN FZFG VV015 M02/M04 A2873 RMK AO2 P0001 T10221039
PATK 112253Z 00000KT 1/2SM SN FZFG VV014 M02/M04 A2872 RMK AO2 SLP732 P0003 T10221039
PATK 112153Z 00000KT 1/2SM SN FZFG VV012 M03/M04 A2871 RMK AO2 SLP728 P0003 T10281044
PATK 112127Z 00000KT 1/2SM SN FZFG VV014 M03/M04 A2870 RMK AO2 P0001 T10281039
PATK 112120Z 00000KT 1/2SM -SN FZFG VV015 M03/M04 A2870 RMK AO2 P0001 T10281039
PATK 112053Z 00000KT 1/2SM SN FZFG VV012 M03/M04 A2869 RMK AO2 SLP721 P0004 60008 T10331044 51007
PATK 112048Z 00000KT 1/2SM SN FZFG VV012 M03/M04 A2869 RMK AO2 P0003
PATK 112032Z 00000KT 1SM -SN BR VV014 M03/M04 A2868 RMK AO2 P0002 T10331044
PATK 111953Z 00000KT 1SM -SN BR VV020 M04/M05 A2867 RMK AO2 SLP714 P0002 T10391050
PATK 111948Z 00000KT 1 1/4SM -SN BR OVC021 M04/M06 A2867 RMK AO2 P0002
PATK 111941Z 00000KT 2SM -SN BR OVC021 M04/M06 A2867 RMK AO2 P0002 T10391056
PATK 111853Z 00000KT 1 1/2SM -SN BR OVC022 M04/M06 A2865 RMK AO2 SLP707 P0002 T10391061
PATK 111821Z 00000KT 1 1/2SM -SN BR OVC016 M04/M06 A2864 RMK AO2 P0001 T10441056
PATK 111806Z 00000KT 1SM -SN BR VV014 M04/M06 A2863 RMK AO2 P0001 T10441061
PATK 111753Z 00000KT 3/4SM -SN BR VV014 M04/M06 A2862 RMK AO2 SLP698 P0003 60009 T10441061 11044 21061 51026
PATK 111716Z 04003KT 1SM -SN BR VV013 M05/M06 A2861 RMK AO2 P0001 T10501061
PATK 111653Z 05003KT 3/4SM -SN BR VV010 M05/M07 A2860 RMK AO2 SLP691 P0004 T10501067
PATK 111632Z AUTO 03003KT 3/4SM -SN BR VV013 M06/M07 A2859 RMK AO2 P0002 T10561067 TSNO
PATK 111553Z AUTO 00000KT 1 1/4SM -SN BR OVC015 M06/M07 A2858 RMK AO2 SNB06 SLP683 P0002 T10561072 TSNO
PATK 111528Z AUTO 00000KT 1 1/4SM -SN BR OVC020 M06/M07 A2857 RMK AO2 SNB06 P0001 T10561072 TSNO
PATK 111518Z AUTO 00000KT 2 1/2SM -SN BR OVC028 M05/M07 A2856 RMK AO2 SNB06 P0000 T10501072 TSNO
PATK 111453Z AUTO 00000KT 10SM OVC042 M06/M08 A2854 RMK AO2 SLP672 T10561078 53031 TSNO
PATK 111353Z AUTO VRB04KT 10SM OVC070 M05/M08 A2850 RMK AO2 SLP656 T10501083 TSNO
PATK 111253Z AUTO VRB03KT 10SM OVC100 M06/M09 A2847 RMK AO2 SLP648 T10561089 TSNO
PATK 111153Z AUTO 23004KT 10SM BKN110 M06/M07 A2845 RMK AO2 SLP641 T10561072 11022 21078 56022 TSNO
PATK 111053Z AUTO 00000KT 10SM SCT110 M06/M08 A2846 RMK AO2 SLP644 T10611083 TSNO
PATK 110953Z AUTO 00000KT 10SM BKN110 M07/M09 A2848 RMK AO2 SLP652 T10671089 TSNO
PATK 110853Z AUTO 00000KT 10SM CLR M07/M09 A2852 RMK AO2 SLP663 T10721089 410221078 56031 TSNO
PATK 110753Z AUTO 00000KT 10SM CLR M05/M08 A2855 RMK AO2 SLP673 T10501078 TSNO
PATK 110653Z AUTO 01005KT 10SM CLR M02/M08 A2857 RMK AO2 SLP680 T10221078 TSNO
PATK 110553Z AUTO 01006KT 10SM CLR M03/M08 A2861 RMK AO2 SLP693 T10331083 11022 21050 56043 TSNO
PATK 110453Z AUTO 36007KT 10SM CLR M03/M08 A2864 RMK AO2 SLP704 T10281078 TSNO
PATK 110353Z AUTO 36007KT 10SM CLR M03/M08 A2869 RMK AO2 SLP719 T10281083 TSNO